createdAt,value
2022-12-09T00:00:18.437Z,28.10
2022-12-09T00:02:46.267Z,20.43
2022-12-09T00:05:14.154Z,21.60
2022-12-09T00:07:43.393Z,23.13
2022-12-09T00:10:11.531Z,22.80
2022-12-09T00:12:39.446Z,22.53
2022-12-09T00:15:08.850Z,29.07
2022-12-09T00:17:36.806Z,22.53
2022-12-09T00:20:06.014Z,22.90
2022-12-09T00:22:34.048Z,18.27
2022-12-09T00:25:03.255Z,22.30
2022-12-09T00:27:31.139Z,21.57
2022-12-09T00:29:59.860Z,22.20
2022-12-09T00:32:27.722Z,21.77
2022-12-09T00:34:55.512Z,21.13
2022-12-09T00:37:23.158Z,21.13
2022-12-09T00:39:50.830Z,21.27
2022-12-09T00:42:19.876Z,18.50
2022-12-09T00:44:47.776Z,22.67
2022-12-09T00:47:15.550Z,20.63
2022-12-09T00:49:43.349Z,24.93
2022-12-09T00:52:10.976Z,21.30
2022-12-09T00:54:39.040Z,23.13
2022-12-09T00:57:07.003Z,22.00
2022-12-09T00:59:36.179Z,20.90
2022-12-09T01:02:03.934Z,23.03
2022-12-09T01:04:33.832Z,19.57
2022-12-09T01:07:01.606Z,24.30
2022-12-09T01:09:29.836Z,21.20
2022-12-09T01:11:57.718Z,21.70
2022-12-09T01:14:25.795Z,20.90
2022-12-09T01:16:54.925Z,21.60
2022-12-09T01:19:23.035Z,20.17
2022-12-09T01:21:54.909Z,22.33
2022-12-09T01:24:22.871Z,20.53
2022-12-09T01:26:50.734Z,19.13
2022-12-09T01:29:18.451Z,21.50
2022-12-09T01:31:46.137Z,21.87
2022-12-09T01:34:15.221Z,20.67
2022-12-09T01:36:42.882Z,21.07
2022-12-09T01:39:10.964Z,25.13
2022-12-09T01:41:38.757Z,24.77
2022-12-09T01:46:41.318Z,18.67
2022-12-09T01:49:10.361Z,22.90
2022-12-09T01:51:39.675Z,24.30
2022-12-09T01:54:07.461Z,22.73
2022-12-09T01:56:36.007Z,20.23
2022-12-09T01:59:05.244Z,24.70
2022-12-09T02:01:33.078Z,23.13
2022-12-09T02:04:01.155Z,22.17
2022-12-09T02:06:29.383Z,23.60
2022-12-09T02:08:58.593Z,22.17
2022-12-09T02:11:30.647Z,23.63
2022-12-09T02:14:02.453Z,20.87
2022-12-09T02:16:30.644Z,24.57
2022-12-09T02:19:01.164Z,24.43
2022-12-09T02:21:31.158Z,22.00
2022-12-09T02:24:05.454Z,22.33
2022-12-09T02:26:36.968Z,23.40
2022-12-09T02:29:19.764Z,23.23
2022-12-09T02:32:08.250Z,28.00
2022-12-09T02:34:38.793Z,26.13
2022-12-09T02:37:09.738Z,27.03
2022-12-09T02:39:42.804Z,25.50
2022-12-09T02:42:10.877Z,25.67
2022-12-09T02:44:39.013Z,19.27
2022-12-09T02:47:07.284Z,20.13
2022-12-09T02:49:35.108Z,22.47
2022-12-09T02:52:04.252Z,22.37
2022-12-09T02:54:32.358Z,26.40
2022-12-09T02:57:02.837Z,23.03
2022-12-09T02:59:30.879Z,24.13
2022-12-09T03:02:14.421Z,21.77
2022-12-09T03:04:43.811Z,22.13
2022-12-09T03:07:16.975Z,23.93
2022-12-09T03:09:46.075Z,23.10
2022-12-09T03:12:15.392Z,27.73
2022-12-09T03:14:44.690Z,26.07
2022-12-09T03:17:14.480Z,23.53
2022-12-09T03:19:43.657Z,23.47
2022-12-09T03:22:14.800Z,21.40
2022-12-09T03:24:45.672Z,22.57
2022-12-09T03:27:15.750Z,22.70
2022-12-09T03:29:43.941Z,23.43
2022-12-09T03:32:12.022Z,25.53
2022-12-09T03:34:40.319Z,26.60
2022-12-09T03:37:08.260Z,23.07
2022-12-09T03:39:38.739Z,23.57
2022-12-09T03:42:08.653Z,22.77
2022-12-09T03:44:38.180Z,26.47
2022-12-09T03:47:06.868Z,25.77
2022-12-09T03:49:35.830Z,23.43
2022-12-09T03:52:05.323Z,23.00
2022-12-09T03:54:34.746Z,26.33
2022-12-09T03:57:04.150Z,24.20
2022-12-09T03:59:34.782Z,26.00
2022-12-09T04:02:03.670Z,23.30
2022-12-09T04:04:32.123Z,24.97
2022-12-09T04:07:00.068Z,28.97
2022-12-09T04:09:28.488Z,23.27
2022-12-09T04:11:56.325Z,28.87
2022-12-09T04:14:25.479Z,28.30
2022-12-09T04:16:53.331Z,25.83
2022-12-09T04:19:21.133Z,27.33
2022-12-09T04:21:48.877Z,29.30
2022-12-09T04:24:17.320Z,24.23
2022-12-09T04:26:45.200Z,26.77
2022-12-09T04:29:15.348Z,23.23
2022-12-09T04:31:44.745Z,26.17
2022-12-09T04:34:13.951Z,28.70
2022-12-09T04:36:41.737Z,24.67
2022-12-09T04:39:10.039Z,24.20
2022-12-09T04:41:38.181Z,26.10
2022-12-09T04:44:06.517Z,22.53
2022-12-09T04:46:34.416Z,24.20
2022-12-09T04:49:04.160Z,24.97
2022-12-09T04:51:39.223Z,21.83
2022-12-09T04:54:07.700Z,22.17
2022-12-09T04:56:35.723Z,27.17
2022-12-09T04:59:04.804Z,27.53
2022-12-09T05:01:33.248Z,27.47
2022-12-09T05:04:01.351Z,26.20
2022-12-09T05:06:31.232Z,28.67
2022-12-09T05:08:59.452Z,23.80
2022-12-09T05:11:27.541Z,27.50
2022-12-09T05:13:55.487Z,26.87
2022-12-09T05:16:24.109Z,25.83
2022-12-09T05:18:52.411Z,26.00
2022-12-09T05:21:21.132Z,22.90
2022-12-09T05:23:50.455Z,23.47
2022-12-09T05:26:21.366Z,26.63
2022-12-09T05:28:49.372Z,29.27
2022-12-09T05:31:19.840Z,24.00
2022-12-09T05:33:48.212Z,21.53
2022-12-09T05:36:17.884Z,22.73
2022-12-09T05:38:45.787Z,22.13
2022-12-09T05:41:15.853Z,19.10
2022-12-09T05:43:44.037Z,24.07
2022-12-09T05:46:12.294Z,18.73
2022-12-09T05:48:40.609Z,19.03
2022-12-09T05:51:11.761Z,19.10
2022-12-09T05:53:39.803Z,22.30
2022-12-09T05:56:07.682Z,22.17
2022-12-09T05:58:36.979Z,23.33
2022-12-09T06:01:05.745Z,21.47
2022-12-09T06:03:35.507Z,17.20
2022-12-09T06:06:06.773Z,15.90
2022-12-09T06:08:35.537Z,19.40
2022-12-09T06:11:03.454Z,16.83
2022-12-09T06:13:32.097Z,20.10
2022-12-09T06:16:05.338Z,17.97
2022-12-09T06:18:33.877Z,19.03
2022-12-09T06:21:06.292Z,19.13
2022-12-09T06:23:35.431Z,19.40
2022-12-09T06:26:03.565Z,19.73
2022-12-09T06:28:31.438Z,18.43
2022-12-09T06:31:00.050Z,17.37
2022-12-09T06:33:53.602Z,22.03
2022-12-09T06:36:16.881Z,23.73
2022-12-09T06:38:47.262Z,22.33
2022-12-09T06:41:15.755Z,25.13
2022-12-09T06:43:44.021Z,22.20
2022-12-09T06:46:13.010Z,25.80
2022-12-09T06:48:42.804Z,28.27
2022-12-09T06:51:11.177Z,24.60
2022-12-09T06:53:39.185Z,22.00
2022-12-09T06:56:12.170Z,25.83
2022-12-09T06:58:41.438Z,23.43
2022-12-09T07:01:13.786Z,27.70
2022-12-09T07:03:43.904Z,24.00
2022-12-09T07:06:17.985Z,20.00
2022-12-09T07:08:45.899Z,22.53
2022-12-09T07:11:14.691Z,24.83
2022-12-09T07:13:42.989Z,22.93
2022-12-09T07:16:11.043Z,24.63
2022-12-09T07:18:39.111Z,25.93
2022-12-09T07:21:09.510Z,28.90
2022-12-09T07:23:38.301Z,26.37
2022-12-09T07:26:07.399Z,29.60
2022-12-09T07:28:36.449Z,24.87
2022-12-09T07:31:04.585Z,25.87
2022-12-09T07:33:32.729Z,28.47
2022-12-09T07:36:01.108Z,30.63
2022-12-09T07:38:30.411Z,27.97
2022-12-09T07:40:58.515Z,28.47
2022-12-09T07:46:08.488Z,28.50
2022-12-09T07:48:36.890Z,26.70
2022-12-09T07:51:05.444Z,40.40
2022-12-09T07:53:35.249Z,25.37
2022-12-09T07:56:04.626Z,24.43
2022-12-09T07:58:32.795Z,26.63
2022-12-09T08:01:06.314Z,21.23
2022-12-09T08:03:34.303Z,19.23
2022-12-09T08:06:02.564Z,21.40
2022-12-09T08:08:31.129Z,23.67
2022-12-09T08:11:08.624Z,21.83
2022-12-09T08:13:36.675Z,21.10
2022-12-09T08:16:05.283Z,22.00
2022-12-09T08:18:33.357Z,22.00
2022-12-09T08:21:01.558Z,20.93
2022-12-09T08:23:29.682Z,25.07
2022-12-09T08:25:58.028Z,21.67
2022-12-09T08:28:29.077Z,19.80
2022-12-09T08:30:57.411Z,19.80
2022-12-09T08:33:26.840Z,20.63
2022-12-09T08:35:54.840Z,16.93
2022-12-09T08:38:22.792Z,18.70
2022-12-09T08:40:50.616Z,17.37
2022-12-09T08:43:18.508Z,21.57
2022-12-09T08:45:48.932Z,22.50
2022-12-09T08:48:17.523Z,20.07
2022-12-09T08:50:46.206Z,18.90
2022-12-09T08:53:14.636Z,15.60
2022-12-09T08:55:42.988Z,18.40
2022-12-09T08:58:11.128Z,17.70
2022-12-09T09:00:39.138Z,16.33
2022-12-09T09:03:12.262Z,19.33
2022-12-09T09:05:40.551Z,21.97
2022-12-09T09:08:09.000Z,15.80
2022-12-09T09:10:43.398Z,19.67
2022-12-09T09:13:11.525Z,15.97
2022-12-09T09:15:40.476Z,16.60
2022-12-09T09:18:11.014Z,14.97
2022-12-09T09:20:38.998Z,16.23
2022-12-09T09:23:06.997Z,16.20
2022-12-09T09:25:35.289Z,18.57
2022-12-09T09:28:03.647Z,55.50
2022-12-09T09:30:32.196Z,19.87
2022-12-09T09:33:00.290Z,14.10
2022-12-09T09:35:30.444Z,18.87
2022-12-09T09:37:59.374Z,14.53
2022-12-09T09:40:27.574Z,18.13
2022-12-09T09:42:55.663Z,16.87
2022-12-09T09:45:24.893Z,18.43
2022-12-09T09:47:54.410Z,17.50
2022-12-09T09:50:30.925Z,16.60
2022-12-09T09:53:12.167Z,20.70
2022-12-09T09:55:43.873Z,17.50
2022-12-09T09:58:15.077Z,14.23
2022-12-09T10:00:47.628Z,18.17
2022-12-09T10:03:18.969Z,16.07
2022-12-09T10:05:51.868Z,15.33
2022-12-09T10:08:28.245Z,15.30
2022-12-09T10:11:05.159Z,17.73
2022-12-09T10:13:42.219Z,20.00
2022-12-09T10:16:17.882Z,19.73
2022-12-09T10:19:07.385Z,22.30
2022-12-09T10:21:39.499Z,18.83
2022-12-09T10:24:17.423Z,18.53
2022-12-09T10:26:45.317Z,22.03
2022-12-09T10:29:16.810Z,23.00
2022-12-09T10:31:45.209Z,25.27
2022-12-09T10:34:16.123Z,27.10
2022-12-09T10:36:45.305Z,26.13
2022-12-09T10:39:16.556Z,28.57
2022-12-09T10:42:03.939Z,26.87
2022-12-09T10:44:31.978Z,25.93
2022-12-09T10:47:01.413Z,23.57
2022-12-09T10:49:29.657Z,26.03
2022-12-09T10:51:58.115Z,27.33
2022-12-09T10:54:34.977Z,26.50
2022-12-09T10:57:26.865Z,31.73
2022-12-09T11:00:01.850Z,28.43
2022-12-09T11:02:30.370Z,32.73
2022-12-09T11:05:19.104Z,27.57
2022-12-09T11:07:49.198Z,24.83
2022-12-09T11:10:20.713Z,25.80
2022-12-09T11:12:52.111Z,25.53
2022-12-09T11:15:26.603Z,25.80
2022-12-09T11:18:00.411Z,22.47
2022-12-09T11:20:29.676Z,28.83
2022-12-09T11:23:04.268Z,25.67
2022-12-09T11:25:35.192Z,26.07
2022-12-09T11:28:04.042Z,27.00
2022-12-09T11:30:34.075Z,30.33
2022-12-09T11:33:06.063Z,23.57
2022-12-09T11:35:38.331Z,25.00
2022-12-09T11:38:23.225Z,24.60
2022-12-09T11:41:15.352Z,25.63
2022-12-09T11:43:44.655Z,26.10
2022-12-09T11:46:21.460Z,22.07
2022-12-09T11:48:51.554Z,22.17
2022-12-09T11:51:21.820Z,25.40
2022-12-09T11:53:49.751Z,23.20
2022-12-09T11:56:19.663Z,26.50
2022-12-09T11:58:50.743Z,23.93
2022-12-09T12:01:21.108Z,23.53
2022-12-09T12:03:51.100Z,27.43
2022-12-09T12:06:21.671Z,24.70
2022-12-09T12:08:51.097Z,20.63
2022-12-09T12:11:21.921Z,24.07
2022-12-09T12:13:50.420Z,21.97
2022-12-09T12:16:19.785Z,23.10
2022-12-09T12:18:48.859Z,22.43
2022-12-09T12:21:21.757Z,21.67
2022-12-09T12:23:59.887Z,19.73
2022-12-09T12:26:30.448Z,19.40
2022-12-09T12:29:09.160Z,23.43
2022-12-09T12:31:51.413Z,25.33
2022-12-09T12:34:25.663Z,23.10
2022-12-09T12:36:57.407Z,19.00
2022-12-09T12:39:32.361Z,23.93
2022-12-09T12:42:07.063Z,24.60
2022-12-09T12:45:01.795Z,20.23
2022-12-09T12:47:31.450Z,25.20
2022-12-09T12:50:47.984Z,21.87
2022-12-09T12:53:24.053Z,21.47
2022-12-09T12:55:55.092Z,19.70
2022-12-09T12:58:34.553Z,20.10
2022-12-09T13:01:04.496Z,24.33
2022-12-09T13:03:37.562Z,19.73
2022-12-09T13:06:05.349Z,20.90
2022-12-09T13:08:36.648Z,21.50
2022-12-09T13:11:07.877Z,22.97
2022-12-09T13:13:38.698Z,22.87
2022-12-09T13:16:10.158Z,23.80
2022-12-09T13:18:39.825Z,21.70
2022-12-09T13:21:07.926Z,20.97
2022-12-09T13:23:51.177Z,19.30
2022-12-09T13:26:25.154Z,20.50
2022-12-09T13:28:57.615Z,17.53
2022-12-09T13:31:28.924Z,14.63
2022-12-09T13:34:00.376Z,16.33
2022-12-09T13:36:36.472Z,17.70
2022-12-09T13:39:04.542Z,16.70
2022-12-09T13:42:02.793Z,19.17
2022-12-09T13:44:38.474Z,20.10
2022-12-09T13:47:34.819Z,16.33
2022-12-09T13:50:03.780Z,16.83
2022-12-09T13:52:56.492Z,16.67
2022-12-09T13:55:39.674Z,17.37
2022-12-09T13:58:35.077Z,20.50
2022-12-09T14:01:07.953Z,17.33
2022-12-09T14:03:37.055Z,15.67
2022-12-09T14:06:06.970Z,19.43
2022-12-09T14:08:36.881Z,18.47
2022-12-09T14:11:48.210Z,16.87
2022-12-09T14:14:38.229Z,18.57
2022-12-09T14:17:19.141Z,22.30
2022-12-09T14:19:52.924Z,18.63
2022-12-09T14:22:41.570Z,22.20
2022-12-09T14:25:49.722Z,19.90
2022-12-09T14:29:00.959Z,23.60
2022-12-09T14:31:59.604Z,20.17
2022-12-09T14:34:31.058Z,21.70
2022-12-09T14:37:07.076Z,21.47
2022-12-09T14:39:37.771Z,21.17
2022-12-09T14:42:08.682Z,22.87
2022-12-09T14:44:39.120Z,22.03
2022-12-09T14:47:23.168Z,24.50
2022-12-09T14:49:50.879Z,22.33
2022-12-09T14:52:22.994Z,23.00
2022-12-09T14:54:50.847Z,22.63
2022-12-09T14:57:24.383Z,21.77
2022-12-09T14:59:53.672Z,23.00
2022-12-09T15:02:23.834Z,23.70
2022-12-09T15:04:52.397Z,21.93
2022-12-09T15:07:21.620Z,23.03
2022-12-09T15:09:54.496Z,20.13
2022-12-09T15:12:24.111Z,18.70
2022-12-09T15:14:56.390Z,24.40
2022-12-09T15:17:26.927Z,25.47
2022-12-09T15:20:05.782Z,25.63
2022-12-09T15:22:33.706Z,20.63
2022-12-09T15:25:04.500Z,23.93
2022-12-09T15:27:32.662Z,25.00
2022-12-09T15:30:04.279Z,26.47
2022-12-09T15:32:33.636Z,27.33
2022-12-09T15:35:30.870Z,28.97
2022-12-09T15:37:59.478Z,27.27
2022-12-09T15:40:29.279Z,29.47
2022-12-09T15:42:59.465Z,29.57
2022-12-09T15:45:28.397Z,26.87
2022-12-09T15:47:59.127Z,30.77
2022-12-09T15:50:28.432Z,30.87
2022-12-09T15:52:58.438Z,28.90
2022-12-09T15:55:28.356Z,28.80
2022-12-09T15:57:56.782Z,26.67
2022-12-09T16:00:24.913Z,34.33
2022-12-09T16:02:53.992Z,34.43
2022-12-09T16:05:24.975Z,30.27
2022-12-09T16:07:54.631Z,37.17
2022-12-09T16:10:26.611Z,31.53
2022-12-09T16:13:08.611Z,31.77
2022-12-09T16:15:46.069Z,29.17
2022-12-09T16:18:20.617Z,31.47
2022-12-09T16:21:00.283Z,34.20
2022-12-09T16:23:30.552Z,31.87
2022-12-09T16:26:06.315Z,35.17
2022-12-09T16:28:35.246Z,34.67
2022-12-09T16:31:04.317Z,35.87
2022-12-09T16:33:34.370Z,33.90
2022-12-09T16:36:04.725Z,40.23
2022-12-09T16:38:33.956Z,31.33
2022-12-09T16:41:07.040Z,33.90
2022-12-09T16:43:35.047Z,34.93
2022-12-09T16:46:23.850Z,34.47
2022-12-09T16:48:51.783Z,36.37
2022-12-09T16:51:22.867Z,34.43
2022-12-09T16:53:51.681Z,39.27
2022-12-09T16:56:20.744Z,39.50
2022-12-09T16:58:48.589Z,38.03
2022-12-09T17:01:17.544Z,37.57
2022-12-09T17:03:46.836Z,36.83
2022-12-09T17:06:15.132Z,39.37
2022-12-09T17:08:44.661Z,38.77
2022-12-09T17:11:12.559Z,39.87
2022-12-09T17:13:40.790Z,37.97
2022-12-09T17:16:09.521Z,35.17
2022-12-09T17:18:37.492Z,36.57
2022-12-09T17:21:06.817Z,35.10
2022-12-09T17:23:39.711Z,36.83
2022-12-09T17:26:10.587Z,40.27
2022-12-09T17:28:38.835Z,41.70
2022-12-09T17:31:08.877Z,43.83
2022-12-09T17:33:36.766Z,42.40
2022-12-09T17:36:04.809Z,44.30
2022-12-09T17:38:33.078Z,45.03
2022-12-09T17:41:04.607Z,41.20
2022-12-09T17:43:34.082Z,47.87
2022-12-09T17:46:03.815Z,51.10
2022-12-09T17:48:31.964Z,46.43
2022-12-09T17:51:00.660Z,44.03
2022-12-09T17:53:31.651Z,47.00
2022-12-09T17:55:59.588Z,54.97
2022-12-09T17:58:27.647Z,52.20
2022-12-09T18:00:57.173Z,46.87
2022-12-09T18:03:53.902Z,50.47
2022-12-09T18:06:12.978Z,51.33
2022-12-09T18:08:40.836Z,51.23
2022-12-09T18:11:10.698Z,54.33
2022-12-09T18:13:38.717Z,49.80
2022-12-09T18:16:11.124Z,46.57
2022-12-09T18:18:39.072Z,47.63
2022-12-09T18:21:13.654Z,44.03
2022-12-09T18:23:43.388Z,45.23
2022-12-09T18:26:12.362Z,47.03
2022-12-09T18:28:40.412Z,46.07
2022-12-09T18:31:10.246Z,45.80
2022-12-09T18:33:39.480Z,50.50
2022-12-09T18:36:08.098Z,44.13
2022-12-09T18:38:36.016Z,45.80
2022-12-09T18:41:04.096Z,45.17
2022-12-09T18:43:33.836Z,41.37
2022-12-09T18:46:03.130Z,41.30
2022-12-09T18:48:32.753Z,41.00
2022-12-09T18:51:00.632Z,41.97
2022-12-09T18:53:28.422Z,43.97
2022-12-09T18:55:56.384Z,43.03
2022-12-09T18:58:49.527Z,46.33
2022-12-09T19:01:17.140Z,37.93
2022-12-09T19:03:46.518Z,42.20
2022-12-09T19:06:23.326Z,45.23
2022-12-09T19:08:53.826Z,42.27
2022-12-09T19:11:22.568Z,46.43
2022-12-09T19:13:50.564Z,39.87
2022-12-09T19:16:18.735Z,47.90
2022-12-09T19:18:48.205Z,45.83
2022-12-09T19:21:18.783Z,45.13
2022-12-09T19:23:47.004Z,45.13
2022-12-09T19:26:15.534Z,43.80
2022-12-09T19:28:47.137Z,47.40
2022-12-09T19:31:16.582Z,43.90
2022-12-09T19:33:44.546Z,45.80
2022-12-09T19:36:13.929Z,47.10
2022-12-09T19:38:42.484Z,51.50
2022-12-09T19:41:10.580Z,46.23
2022-12-09T19:43:38.695Z,47.87
2022-12-09T19:46:07.461Z,46.80
2022-12-09T19:48:37.126Z,47.30
2022-12-09T19:51:06.469Z,45.07
2022-12-09T19:53:36.321Z,48.07
2022-12-09T19:56:05.572Z,49.00
2022-12-09T19:58:33.954Z,42.67
2022-12-09T20:01:08.555Z,51.27
2022-12-09T20:03:36.554Z,50.70
2022-12-09T20:06:04.802Z,46.43
2022-12-09T20:08:32.902Z,47.13
2022-12-09T20:11:02.304Z,49.57
2022-12-09T20:13:31.994Z,49.77
2022-12-09T20:16:04.686Z,42.57
2022-12-09T20:18:32.672Z,48.23
2022-12-09T20:21:01.640Z,50.63
2022-12-09T20:23:29.646Z,47.43
2022-12-09T20:26:05.860Z,49.53
2022-12-09T20:28:33.857Z,51.80
2022-12-09T20:31:15.712Z,45.50
2022-12-09T20:33:43.702Z,43.33
2022-12-09T20:36:12.696Z,42.63
2022-12-09T20:38:40.598Z,45.20
2022-12-09T20:41:11.224Z,41.97
2022-12-09T20:43:40.314Z,45.70
2022-12-09T20:46:25.184Z,44.83
2022-12-09T20:48:53.274Z,50.83
2022-12-09T20:51:22.967Z,45.47
2022-12-09T20:53:50.957Z,46.90
2022-12-09T20:56:21.158Z,44.67
2022-12-09T20:58:50.983Z,45.47
2022-12-09T21:01:21.219Z,48.60
2022-12-09T21:03:49.256Z,47.83
2022-12-09T21:06:17.845Z,47.83
2022-12-09T21:08:45.699Z,49.97
2022-12-09T21:11:14.822Z,45.40
2022-12-09T21:13:55.109Z,48.50
2022-12-09T21:16:25.368Z,48.17
2022-12-09T21:18:54.402Z,49.53
2022-12-09T21:21:23.059Z,48.10
2022-12-09T21:23:54.128Z,49.07
2022-12-09T21:26:22.998Z,51.67
2022-12-09T21:28:52.486Z,51.93
2022-12-09T21:31:22.983Z,47.30
2022-12-09T21:33:51.438Z,51.53
2022-12-09T21:36:20.636Z,48.93
2022-12-09T21:38:48.632Z,46.97
2022-12-09T21:41:19.339Z,50.70
2022-12-09T21:43:47.174Z,46.03
2022-12-09T21:46:17.662Z,47.17
2022-12-09T21:48:51.560Z,49.03
2022-12-09T21:51:20.288Z,53.40
2022-12-09T21:53:48.219Z,51.87
2022-12-09T21:56:17.207Z,51.00
2022-12-09T21:58:45.126Z,54.00
2022-12-09T22:01:14.167Z,49.53
2022-12-09T22:03:44.534Z,50.03
2022-12-09T22:06:12.559Z,50.90
2022-12-09T22:08:40.862Z,53.03
2022-12-09T22:11:09.816Z,55.20
2022-12-09T22:13:39.723Z,53.70
2022-12-09T22:16:08.327Z,55.70
2022-12-09T22:18:36.199Z,53.60
2022-12-09T22:23:54.427Z,52.10
2022-12-09T22:26:22.522Z,53.43
2022-12-09T22:28:50.355Z,49.80
2022-12-09T22:31:20.645Z,52.30
2022-12-09T22:33:48.624Z,53.83
2022-12-09T22:36:17.844Z,53.80
2022-12-09T22:38:45.694Z,54.30
2022-12-09T22:41:15.393Z,49.77
2022-12-09T22:43:43.614Z,52.43
2022-12-09T22:46:20.735Z,54.90
2022-12-09T22:48:48.712Z,53.90
2022-12-09T22:51:18.968Z,51.83
2022-12-09T22:53:48.048Z,54.57
2022-12-09T22:56:15.780Z,58.53
2022-12-09T22:58:43.447Z,57.60
2022-12-09T23:01:11.985Z,53.77
2022-12-09T23:03:39.700Z,59.63
2022-12-09T23:06:07.746Z,54.53
2022-12-09T23:08:37.600Z,58.07
2022-12-09T23:11:06.844Z,57.50
2022-12-09T23:13:40.468Z,55.87
2022-12-09T23:18:42.710Z,60.00
2022-12-09T23:21:11.244Z,57.33
2022-12-09T23:23:40.300Z,59.77
2022-12-09T23:26:09.124Z,58.57
2022-12-09T23:28:37.221Z,63.23
2022-12-09T23:31:05.113Z,59.27
2022-12-09T23:33:34.024Z,53.17
2022-12-09T23:36:06.224Z,56.37
2022-12-09T23:38:35.088Z,57.23
2022-12-09T23:41:04.263Z,59.23
2022-12-09T23:43:32.222Z,64.13
2022-12-09T23:46:01.320Z,55.43
2022-12-09T23:48:29.064Z,63.77
2022-12-09T23:50:56.787Z,58.73
2022-12-09T23:53:24.639Z,61.00
2022-12-09T23:55:52.908Z,57.83
2022-12-09T23:58:22.086Z,61.40
